sensor_id;sensor_type;location;lat;lon;timestamp;P1;durP1;ratioP1;P2;durP2;ratioP2
28838;SDS011;15971;50.772;6.100;2022-09-01T00:01:24;11.35;;;5.82;;
28838;SDS011;15971;50.772;6.100;2022-09-01T00:03:52;7.93;;;5.45;;
28838;SDS011;15971;50.772;6.100;2022-09-01T00:06:19;8.90;;;5.60;;
28838;SDS011;15971;50.772;6.100;2022-09-01T00:08:52;7.38;;;5.20;;
28838;SDS011;15971;50.772;6.100;2022-09-01T00:11:20;11.30;;;5.28;;
28838;SDS011;15971;50.772;6.100;2022-09-01T00:13:47;7.50;;;4.60;;
28838;SDS011;15971;50.772;6.100;2022-09-01T00:16:14;11.57;;;4.82;;
28838;SDS011;15971;50.772;6.100;2022-09-01T00:18:43;8.85;;;4.80;;
28838;SDS011;15971;50.772;6.100;2022-09-01T00:21:17;6.57;;;4.55;;
28838;SDS011;15971;50.772;6.100;2022-09-01T00:23:44;8.82;;;4.80;;
28838;SDS011;15971;50.772;6.100;2022-09-01T00:26:10;7.25;;;4.65;;
28838;SDS011;15971;50.772;6.100;2022-09-01T00:28:36;7.50;;;4.55;;
28838;SDS011;15971;50.772;6.100;2022-09-01T00:31:03;8.18;;;4.85;;
28838;SDS011;15971;50.772;6.100;2022-09-01T00:33:30;6.00;;;4.80;;
28838;SDS011;15971;50.772;6.100;2022-09-01T00:35:56;12.60;;;4.47;;
28838;SDS011;15971;50.772;6.100;2022-09-01T00:38:22;7.55;;;4.57;;
28838;SDS011;15971;50.772;6.100;2022-09-01T00:40:48;8.55;;;4.43;;
28838;SDS011;15971;50.772;6.100;2022-09-01T00:43:19;6.28;;;4.55;;
28838;SDS011;15971;50.772;6.100;2022-09-01T00:45:47;8.55;;;4.18;;
28838;SDS011;15971;50.772;6.100;2022-09-01T00:48:15;10.98;;;4.68;;
28838;SDS011;15971;50.772;6.100;2022-09-01T00:50:43;9.75;;;4.80;;
28838;SDS011;15971;50.772;6.100;2022-09-01T00:53:10;6.95;;;4.25;;
28838;SDS011;15971;50.772;6.100;2022-09-01T00:55:36;5.70;;;4.28;;
28838;SDS011;15971;50.772;6.100;2022-09-01T00:58:06;5.28;;;4.22;;
28838;SDS011;15971;50.772;6.100;2022-09-01T01:00:33;15.25;;;5.03;;
28838;SDS011;15971;50.772;6.100;2022-09-01T01:03:09;6.38;;;4.68;;
28838;SDS011;15971;50.772;6.100;2022-09-01T01:05:37;7.45;;;4.50;;
28838;SDS011;15971;50.772;6.100;2022-09-01T01:08:11;6.13;;;5.05;;
28838;SDS011;15971;50.772;6.100;2022-09-01T01:10:38;11.20;;;5.25;;
28838;SDS011;15971;50.772;6.100;2022-09-01T01:13:09;12.63;;;5.55;;
28838;SDS011;15971;50.772;6.100;2022-09-01T01:15:38;6.28;;;5.10;;
28838;SDS011;15971;50.772;6.100;2022-09-01T01:18:08;7.60;;;4.97;;
28838;SDS011;15971;50.772;6.100;2022-09-01T01:20:38;8.88;;;5.32;;
28838;SDS011;15971;50.772;6.100;2022-09-01T01:23:29;8.95;;;4.63;;
28838;SDS011;15971;50.772;6.100;2022-09-01T01:26:01;7.00;;;4.93;;
28838;SDS011;15971;50.772;6.100;2022-09-01T01:28:29;6.25;;;4.63;;
28838;SDS011;15971;50.772;6.100;2022-09-01T01:31:04;6.30;;;4.63;;
28838;SDS011;15971;50.772;6.100;2022-09-01T01:33:41;7.18;;;4.72;;
28838;SDS011;15971;50.772;6.100;2022-09-01T01:36:11;7.30;;;5.30;;
28838;SDS011;15971;50.772;6.100;2022-09-01T01:38:40;6.40;;;5.03;;
28838;SDS011;15971;50.772;6.100;2022-09-01T01:41:08;10.60;;;5.00;;
28838;SDS011;15971;50.772;6.100;2022-09-01T01:43:35;7.53;;;5.40;;
28838;SDS011;15971;50.772;6.100;2022-09-01T01:46:02;8.70;;;5.47;;
28838;SDS011;15971;50.772;6.100;2022-09-01T01:48:30;9.23;;;5.20;;
28838;SDS011;15971;50.772;6.100;2022-09-01T01:50:59;9.30;;;5.82;;
28838;SDS011;15971;50.772;6.100;2022-09-01T01:53:26;10.80;;;5.43;;
28838;SDS011;15971;50.772;6.100;2022-09-01T01:55:52;7.55;;;5.07;;
28838;SDS011;15971;50.772;6.100;2022-09-01T01:58:18;6.97;;;5.25;;
28838;SDS011;15971;50.772;6.100;2022-09-01T02:00:46;7.47;;;5.35;;
28838;SDS011;15971;50.772;6.100;2022-09-01T02:03:14;6.63;;;4.93;;
28838;SDS011;15971;50.772;6.100;2022-09-01T02:05:42;8.43;;;5.63;;
28838;SDS011;15971;50.772;6.100;2022-09-01T02:08:09;7.03;;;5.07;;
28838;SDS011;15971;50.772;6.100;2022-09-01T02:10:40;9.65;;;5.18;;
28838;SDS011;15971;50.772;6.100;2022-09-01T02:13:11;7.00;;;5.30;;
28838;SDS011;15971;50.772;6.100;2022-09-01T02:15:49;6.00;;;4.65;;
28838;SDS011;15971;50.772;6.100;2022-09-01T02:18:22;7.53;;;5.68;;
28838;SDS011;15971;50.772;6.100;2022-09-01T02:20:51;6.25;;;4.88;;
28838;SDS011;15971;50.772;6.100;2022-09-01T02:23:18;9.05;;;5.22;;
28838;SDS011;15971;50.772;6.100;2022-09-01T02:25:47;7.18;;;5.03;;
28838;SDS011;15971;50.772;6.100;2022-09-01T02:28:15;10.45;;;4.95;;
28838;SDS011;15971;50.772;6.100;2022-09-01T02:30:42;7.05;;;5.18;;
28838;SDS011;15971;50.772;6.100;2022-09-01T02:33:10;8.57;;;4.90;;
28838;SDS011;15971;50.772;6.100;2022-09-01T02:35:43;6.45;;;5.05;;
28838;SDS011;15971;50.772;6.100;2022-09-01T02:38:10;6.28;;;5.13;;
28838;SDS011;15971;50.772;6.100;2022-09-01T02:40:38;6.13;;;5.10;;
28838;SDS011;15971;50.772;6.100;2022-09-01T02:43:11;7.07;;;5.00;;
28838;SDS011;15971;50.772;6.100;2022-09-01T02:45:38;7.22;;;5.25;;
28838;SDS011;15971;50.772;6.100;2022-09-01T02:48:06;6.78;;;4.93;;
28838;SDS011;15971;50.772;6.100;2022-09-01T02:50:33;8.70;;;4.82;;
28838;SDS011;15971;50.772;6.100;2022-09-01T02:53:03;7.40;;;5.70;;
28838;SDS011;15971;50.772;6.100;2022-09-01T02:55:34;5.38;;;4.65;;
28838;SDS011;15971;50.772;6.100;2022-09-01T02:58:01;6.22;;;4.97;;
28838;SDS011;15971;50.772;6.100;2022-09-01T03:00:27;6.50;;;4.80;;
28838;SDS011;15971;50.772;6.100;2022-09-01T03:02:59;7.05;;;5.03;;
28838;SDS011;15971;50.772;6.100;2022-09-01T03:05:26;6.78;;;4.85;;
28838;SDS011;15971;50.772;6.100;2022-09-01T03:07:57;7.13;;;5.15;;
28838;SDS011;15971;50.772;6.100;2022-09-01T03:10:25;7.00;;;4.28;;
28838;SDS011;15971;50.772;6.100;2022-09-01T03:13:04;5.18;;;4.47;;
28838;SDS011;15971;50.772;6.100;2022-09-01T03:20:24;6.43;;;5.15;;
28838;SDS011;15971;50.772;6.100;2022-09-01T03:22:52;8.45;;;5.07;;
28838;SDS011;15971;50.772;6.100;2022-09-01T03:25:20;6.95;;;5.07;;
28838;SDS011;15971;50.772;6.100;2022-09-01T03:27:47;6.55;;;4.68;;
28838;SDS011;15971;50.772;6.100;2022-09-01T03:30:13;9.55;;;6.03;;
28838;SDS011;15971;50.772;6.100;2022-09-01T03:32:38;7.60;;;5.45;;
28838;SDS011;15971;50.772;6.100;2022-09-01T03:35:04;7.63;;;4.93;;
28838;SDS011;15971;50.772;6.100;2022-09-01T03:37:30;8.95;;;5.28;;
28838;SDS011;15971;50.772;6.100;2022-09-01T03:39:57;13.65;;;5.63;;
28838;SDS011;15971;50.772;6.100;2022-09-01T03:42:23;8.93;;;5.07;;
28838;SDS011;15971;50.772;6.100;2022-09-01T03:44:53;11.93;;;5.57;;
28838;SDS011;15971;50.772;6.100;2022-09-01T03:47:20;9.25;;;5.35;;
28838;SDS011;15971;50.772;6.100;2022-09-01T03:49:46;6.10;;;5.05;;
28838;SDS011;15971;50.772;6.100;2022-09-01T03:52:13;8.15;;;5.05;;
28838;SDS011;15971;50.772;6.100;2022-09-01T03:54:41;7.38;;;5.38;;
28838;SDS011;15971;50.772;6.100;2022-09-01T03:57:07;7.70;;;5.32;;
28838;SDS011;15971;50.772;6.100;2022-09-01T03:59:34;5.57;;;4.68;;
28838;SDS011;15971;50.772;6.100;2022-09-01T04:02:02;7.80;;;4.65;;
28838;SDS011;15971;50.772;6.100;2022-09-01T04:04:27;5.90;;;5.10;;
28838;SDS011;15971;50.772;6.100;2022-09-01T04:06:57;8.23;;;5.40;;
28838;SDS011;15971;50.772;6.100;2022-09-01T04:09:24;10.95;;;5.40;;
28838;SDS011;15971;50.772;6.100;2022-09-01T04:11:50;8.70;;;4.82;;
28838;SDS011;15971;50.772;6.100;2022-09-01T04:14:17;6.50;;;5.00;;
28838;SDS011;15971;50.772;6.100;2022-09-01T04:16:44;5.95;;;4.90;;
28838;SDS011;15971;50.772;6.100;2022-09-01T04:19:31;6.40;;;5.00;;
28838;SDS011;15971;50.772;6.100;2022-09-01T04:22:03;6.70;;;5.05;;
28838;SDS011;15971;50.772;6.100;2022-09-01T04:24:30;7.25;;;5.25;;
28838;SDS011;15971;50.772;6.100;2022-09-01T04:26:57;6.25;;;4.70;;
28838;SDS011;15971;50.772;6.100;2022-09-01T04:29:26;5.63;;;4.82;;
28838;SDS011;15971;50.772;6.100;2022-09-01T04:31:56;11.98;;;4.78;;
28838;SDS011;15971;50.772;6.100;2022-09-01T04:34:29;6.43;;;4.95;;
28838;SDS011;15971;50.772;6.100;2022-09-01T04:37:01;7.28;;;5.43;;
28838;SDS011;15971;50.772;6.100;2022-09-01T04:39:30;9.35;;;5.00;;
28838;SDS011;15971;50.772;6.100;2022-09-01T04:41:56;7.50;;;4.82;;
28838;SDS011;15971;50.772;6.100;2022-09-01T04:44:22;7.38;;;4.97;;
28838;SDS011;15971;50.772;6.100;2022-09-01T04:46:49;8.93;;;4.85;;
28838;SDS011;15971;50.772;6.100;2022-09-01T04:49:16;6.75;;;4.93;;
28838;SDS011;15971;50.772;6.100;2022-09-01T04:51:50;8.18;;;5.50;;
28838;SDS011;15971;50.772;6.100;2022-09-01T04:54:17;5.72;;;4.97;;
28838;SDS011;15971;50.772;6.100;2022-09-01T04:56:45;14.18;;;5.75;;
28838;SDS011;15971;50.772;6.100;2022-09-01T04:59:15;10.00;;;5.57;;
28838;SDS011;15971;50.772;6.100;2022-09-01T05:01:44;11.73;;;5.60;;
28838;SDS011;15971;50.772;6.100;2022-09-01T05:04:14;8.18;;;5.70;;
28838;SDS011;15971;50.772;6.100;2022-09-01T05:06:53;7.53;;;4.95;;
28838;SDS011;15971;50.772;6.100;2022-09-01T05:09:25;6.32;;;4.82;;
28838;SDS011;15971;50.772;6.100;2022-09-01T05:11:59;10.63;;;5.20;;
28838;SDS011;15971;50.772;6.100;2022-09-01T05:14:35;5.40;;;4.78;;
28838;SDS011;15971;50.772;6.100;2022-09-01T05:17:07;7.22;;;4.70;;
28838;SDS011;15971;50.772;6.100;2022-09-01T05:19:44;9.15;;;5.32;;
28838;SDS011;15971;50.772;6.100;2022-09-01T05:22:12;6.57;;;4.57;;
28838;SDS011;15971;50.772;6.100;2022-09-01T05:24:39;6.65;;;4.72;;
28838;SDS011;15971;50.772;6.100;2022-09-01T05:27:06;8.80;;;5.15;;
28838;SDS011;15971;50.772;6.100;2022-09-01T05:29:32;8.52;;;5.40;;
28838;SDS011;15971;50.772;6.100;2022-09-01T05:31:58;9.00;;;4.75;;
28838;SDS011;15971;50.772;6.100;2022-09-01T05:34:32;8.75;;;4.63;;
28838;SDS011;15971;50.772;6.100;2022-09-01T05:37:01;7.40;;;4.88;;
28838;SDS011;15971;50.772;6.100;2022-09-01T05:39:26;5.32;;;4.32;;
28838;SDS011;15971;50.772;6.100;2022-09-01T05:41:52;5.75;;;4.32;;
28838;SDS011;15971;50.772;6.100;2022-09-01T05:44:22;59.50;;;10.52;;
28838;SDS011;15971;50.772;6.100;2022-09-01T05:46:47;19.10;;;7.22;;
28838;SDS011;15971;50.772;6.100;2022-09-01T05:49:14;13.65;;;5.75;;
28838;SDS011;15971;50.772;6.100;2022-09-01T05:51:43;8.70;;;5.93;;
28838;SDS011;15971;50.772;6.100;2022-09-01T05:54:13;21.95;;;10.40;;
28838;SDS011;15971;50.772;6.100;2022-09-01T05:56:45;41.17;;;25.48;;
28838;SDS011;15971;50.772;6.100;2022-09-01T05:59:11;8.25;;;5.32;;
28838;SDS011;15971;50.772;6.100;2022-09-01T06:01:39;6.65;;;4.90;;
28838;SDS011;15971;50.772;6.100;2022-09-01T06:04:05;12.23;;;5.65;;
28838;SDS011;15971;50.772;6.100;2022-09-01T06:06:35;11.75;;;4.72;;
28838;SDS011;15971;50.772;6.100;2022-09-01T06:09:10;6.75;;;4.95;;
28838;SDS011;15971;50.772;6.100;2022-09-01T06:11:37;10.70;;;5.32;;
28838;SDS011;15971;50.772;6.100;2022-09-01T06:14:05;10.27;;;5.55;;
28838;SDS011;15971;50.772;6.100;2022-09-01T06:16:32;14.20;;;5.85;;
28838;SDS011;15971;50.772;6.100;2022-09-01T06:19:00;8.60;;;4.63;;
28838;SDS011;15971;50.772;6.100;2022-09-01T06:21:26;15.60;;;8.80;;
28838;SDS011;15971;50.772;6.100;2022-09-01T06:23:53;11.02;;;5.75;;
28838;SDS011;15971;50.772;6.100;2022-09-01T06:26:24;8.82;;;5.22;;
28838;SDS011;15971;50.772;6.100;2022-09-01T06:28:55;9.23;;;4.38;;
28838;SDS011;15971;50.772;6.100;2022-09-01T06:31:26;11.02;;;4.07;;
28838;SDS011;15971;50.772;6.100;2022-09-01T06:33:54;11.40;;;4.80;;
28838;SDS011;15971;50.772;6.100;2022-09-01T06:36:20;10.05;;;5.18;;
28838;SDS011;15971;50.772;6.100;2022-09-01T06:38:48;8.02;;;4.10;;
28838;SDS011;15971;50.772;6.100;2022-09-01T06:41:15;10.82;;;3.80;;
28838;SDS011;15971;50.772;6.100;2022-09-01T06:43:44;5.35;;;3.55;;
28838;SDS011;15971;50.772;6.100;2022-09-01T06:46:10;5.97;;;3.85;;
28838;SDS011;15971;50.772;6.100;2022-09-01T06:48:37;10.40;;;4.00;;
28838;SDS011;15971;50.772;6.100;2022-09-01T06:51:10;4.78;;;3.15;;
28838;SDS011;15971;50.772;6.100;2022-09-01T06:53:40;13.52;;;3.72;;
28838;SDS011;15971;50.772;6.100;2022-09-01T06:56:06;7.38;;;3.10;;
28838;SDS011;15971;50.772;6.100;2022-09-01T06:58:37;5.93;;;3.28;;
28838;SDS011;15971;50.772;6.100;2022-09-01T07:01:07;6.43;;;3.17;;
28838;SDS011;15971;50.772;6.100;2022-09-01T07:03:43;6.25;;;3.30;;
28838;SDS011;15971;50.772;6.100;2022-09-01T07:06:15;7.63;;;3.05;;
28838;SDS011;15971;50.772;6.100;2022-09-01T07:08:43;7.32;;;2.65;;
28838;SDS011;15971;50.772;6.100;2022-09-01T07:11:17;5.22;;;2.33;;
28838;SDS011;15971;50.772;6.100;2022-09-01T07:13:49;3.97;;;2.63;;
28838;SDS011;15971;50.772;6.100;2022-09-01T07:16:18;4.13;;;2.30;;
28838;SDS011;15971;50.772;6.100;2022-09-01T07:18:46;4.88;;;2.33;;
28838;SDS011;15971;50.772;6.100;2022-09-01T07:21:12;9.40;;;2.60;;
28838;SDS011;15971;50.772;6.100;2022-09-01T07:23:38;6.88;;;2.30;;
28838;SDS011;15971;50.772;6.100;2022-09-01T07:26:05;5.20;;;1.98;;
28838;SDS011;15971;50.772;6.100;2022-09-01T07:28:31;2.80;;;1.98;;
28838;SDS011;15971;50.772;6.100;2022-09-01T07:30:57;6.32;;;1.45;;
28838;SDS011;15971;50.772;6.100;2022-09-01T07:33:24;9.90;;;1.95;;
28838;SDS011;15971;50.772;6.100;2022-09-01T07:35:51;5.45;;;1.98;;
28838;SDS011;15971;50.772;6.100;2022-09-01T07:38:19;5.32;;;1.95;;
28838;SDS011;15971;50.772;6.100;2022-09-01T07:40:45;8.60;;;2.30;;
28838;SDS011;15971;50.772;6.100;2022-09-01T07:43:15;2.90;;;1.70;;
28838;SDS011;15971;50.772;6.100;2022-09-01T07:45:46;3.60;;;2.10;;
28838;SDS011;15971;50.772;6.100;2022-09-01T07:48:13;3.80;;;1.65;;
28838;SDS011;15971;50.772;6.100;2022-09-01T07:50:44;5.75;;;1.80;;
28838;SDS011;15971;50.772;6.100;2022-09-01T07:53:19;6.13;;;1.85;;
28838;SDS011;15971;50.772;6.100;2022-09-01T07:55:47;5.65;;;1.63;;
28838;SDS011;15971;50.772;6.100;2022-09-01T07:58:16;4.80;;;1.83;;
28838;SDS011;15971;50.772;6.100;2022-09-01T08:00:43;2.67;;;1.83;;
28838;SDS011;15971;50.772;6.100;2022-09-01T08:03:10;3.47;;;2.05;;
28838;SDS011;15971;50.772;6.100;2022-09-01T08:05:37;3.53;;;1.65;;
28838;SDS011;15971;50.772;6.100;2022-09-01T08:08:02;6.63;;;1.80;;
28838;SDS011;15971;50.772;6.100;2022-09-01T08:10:28;3.90;;;1.50;;
28838;SDS011;15971;50.772;6.100;2022-09-01T08:12:54;9.90;;;1.88;;
28838;SDS011;15971;50.772;6.100;2022-09-01T08:15:20;3.88;;;1.60;;
28838;SDS011;15971;50.772;6.100;2022-09-01T08:17:46;4.50;;;1.48;;
28838;SDS011;15971;50.772;6.100;2022-09-01T08:20:12;10.93;;;2.00;;
28838;SDS011;15971;50.772;6.100;2022-09-01T08:22:37;2.58;;;1.55;;
28838;SDS011;15971;50.772;6.100;2022-09-01T08:25:06;5.55;;;1.65;;
28838;SDS011;15971;50.772;6.100;2022-09-01T08:27:34;3.50;;;1.33;;
28838;SDS011;15971;50.772;6.100;2022-09-01T08:30:04;3.30;;;1.75;;
28838;SDS011;15971;50.772;6.100;2022-09-01T08:32:31;7.03;;;1.40;;
28838;SDS011;15971;50.772;6.100;2022-09-01T08:34:57;2.35;;;1.27;;
28838;SDS011;15971;50.772;6.100;2022-09-01T08:37:24;4.55;;;1.70;;
28838;SDS011;15971;50.772;6.100;2022-09-01T08:39:49;3.60;;;1.30;;
28838;SDS011;15971;50.772;6.100;2022-09-01T08:45:06;5.43;;;1.70;;
28838;SDS011;15971;50.772;6.100;2022-09-01T08:47:39;3.50;;;1.60;;
28838;SDS011;15971;50.772;6.100;2022-09-01T08:50:05;9.10;;;1.90;;
28838;SDS011;15971;50.772;6.100;2022-09-01T08:52:33;3.92;;;1.65;;
28838;SDS011;15971;50.772;6.100;2022-09-01T08:57:51;3.35;;;1.55;;
28838;SDS011;15971;50.772;6.100;2022-09-01T09:00:23;4.53;;;1.55;;
28838;SDS011;15971;50.772;6.100;2022-09-01T09:16:39;6.20;;;1.95;;
28838;SDS011;15971;50.772;6.100;2022-09-01T09:19:10;8.00;;;1.70;;
28838;SDS011;15971;50.772;6.100;2022-09-01T09:21:52;3.20;;;1.40;;
28838;SDS011;15971;50.772;6.100;2022-09-01T09:26:50;3.70;;;1.58;;
28838;SDS011;15971;50.772;6.100;2022-09-01T09:29:18;8.40;;;1.52;;
28838;SDS011;15971;50.772;6.100;2022-09-01T09:31:46;6.28;;;1.67;;
28838;SDS011;15971;50.772;6.100;2022-09-01T09:34:17;3.75;;;1.35;;
28838;SDS011;15971;50.772;6.100;2022-09-01T09:37:15;2.67;;;1.50;;
28838;SDS011;15971;50.772;6.100;2022-09-01T09:45:25;5.03;;;2.00;;
28838;SDS011;15971;50.772;6.100;2022-09-01T09:48:00;3.72;;;1.35;;
28838;SDS011;15971;50.772;6.100;2022-09-01T09:50:37;2.60;;;1.52;;
28838;SDS011;15971;50.772;6.100;2022-09-01T09:58:33;3.75;;;1.90;;
28838;SDS011;15971;50.772;6.100;2022-09-01T10:03:50;2.28;;;1.20;;
28838;SDS011;15971;50.772;6.100;2022-09-01T10:09:07;7.65;;;1.67;;
28838;SDS011;15971;50.772;6.100;2022-09-01T10:11:43;3.38;;;1.58;;
28838;SDS011;15971;50.772;6.100;2022-09-01T10:14:29;10.77;;;1.90;;
28838;SDS011;15971;50.772;6.100;2022-09-01T10:17:01;1.83;;;1.10;;
28838;SDS011;15971;50.772;6.100;2022-09-01T10:19:31;1.73;;;1.15;;
28838;SDS011;15971;50.772;6.100;2022-09-01T10:21:59;3.38;;;1.48;;
28838;SDS011;15971;50.772;6.100;2022-09-01T10:24:29;5.00;;;1.38;;
28838;SDS011;15971;50.772;6.100;2022-09-01T10:26:59;2.75;;;1.02;;
28838;SDS011;15971;50.772;6.100;2022-09-01T10:29:41;3.05;;;1.45;;
28838;SDS011;15971;50.772;6.100;2022-09-01T10:32:11;1.35;;;1.02;;
28838;SDS011;15971;50.772;6.100;2022-09-01T10:34:43;2.97;;;1.27;;
28838;SDS011;15971;50.772;6.100;2022-09-01T10:37:11;3.58;;;1.50;;
28838;SDS011;15971;50.772;6.100;2022-09-01T10:42:34;4.63;;;1.30;;
28838;SDS011;15971;50.772;6.100;2022-09-01T10:45:00;2.00;;;1.20;;
28838;SDS011;15971;50.772;6.100;2022-09-01T10:47:27;5.10;;;1.30;;
28838;SDS011;15971;50.772;6.100;2022-09-01T10:53:05;7.35;;;1.30;;
28838;SDS011;15971;50.772;6.100;2022-09-01T10:55:16;3.42;;;1.15;;
28838;SDS011;15971;50.772;6.100;2022-09-01T10:57:45;2.95;;;1.42;;
28838;SDS011;15971;50.772;6.100;2022-09-01T11:10:53;4.28;;;1.05;;
28838;SDS011;15971;50.772;6.100;2022-09-01T11:22:03;5.85;;;1.35;;
28838;SDS011;15971;50.772;6.100;2022-09-01T11:27:11;4.32;;;1.27;;
28838;SDS011;15971;50.772;6.100;2022-09-01T11:29:57;2.70;;;1.30;;
28838;SDS011;15971;50.772;6.100;2022-09-01T11:32:33;3.10;;;1.05;;
28838;SDS011;15971;50.772;6.100;2022-09-01T11:35:01;3.45;;;1.30;;
28838;SDS011;15971;50.772;6.100;2022-09-01T11:37:29;1.88;;;0.88;;
28838;SDS011;15971;50.772;6.100;2022-09-01T11:39:57;4.32;;;1.10;;
28838;SDS011;15971;50.772;6.100;2022-09-01T11:42:33;1.67;;;1.00;;
28838;SDS011;15971;50.772;6.100;2022-09-01T11:45:17;2.33;;;1.17;;
28838;SDS011;15971;50.772;6.100;2022-09-01T11:47:54;6.22;;;1.60;;
28838;SDS011;15971;50.772;6.100;2022-09-01T11:50:33;2.25;;;1.10;;
28838;SDS011;15971;50.772;6.100;2022-09-01T11:53:02;3.70;;;1.27;;
28838;SDS011;15971;50.772;6.100;2022-09-01T11:55:34;2.50;;;1.15;;
28838;SDS011;15971;50.772;6.100;2022-09-01T11:58:00;2.15;;;1.08;;
28838;SDS011;15971;50.772;6.100;2022-09-01T12:00:28;3.47;;;1.50;;
28838;SDS011;15971;50.772;6.100;2022-09-01T12:02:56;2.15;;;1.13;;
28838;SDS011;15971;50.772;6.100;2022-09-01T12:05:28;2.72;;;1.08;;
28838;SDS011;15971;50.772;6.100;2022-09-01T12:07:57;3.63;;;1.50;;
28838;SDS011;15971;50.772;6.100;2022-09-01T12:13:08;5.35;;;1.42;;
28838;SDS011;15971;50.772;6.100;2022-09-01T12:15:37;3.33;;;1.20;;
28838;SDS011;15971;50.772;6.100;2022-09-01T12:18:14;1.60;;;0.90;;
28838;SDS011;15971;50.772;6.100;2022-09-01T12:20:46;4.57;;;1.50;;
28838;SDS011;15971;50.772;6.100;2022-09-01T12:23:16;3.35;;;1.23;;
28838;SDS011;15971;50.772;6.100;2022-09-01T12:25:46;5.85;;;1.35;;
28838;SDS011;15971;50.772;6.100;2022-09-01T12:28:12;6.15;;;1.27;;
28838;SDS011;15971;50.772;6.100;2022-09-01T12:30:39;3.88;;;1.20;;
28838;SDS011;15971;50.772;6.100;2022-09-01T12:33:09;4.45;;;1.40;;
28838;SDS011;15971;50.772;6.100;2022-09-01T12:35:35;2.58;;;1.10;;
28838;SDS011;15971;50.772;6.100;2022-09-01T12:40:49;4.10;;;1.50;;
28838;SDS011;15971;50.772;6.100;2022-09-01T12:43:37;5.65;;;1.52;;
28838;SDS011;15971;50.772;6.100;2022-09-01T12:46:05;4.43;;;1.35;;
28838;SDS011;15971;50.772;6.100;2022-09-01T12:48:35;2.45;;;1.45;;
28838;SDS011;15971;50.772;6.100;2022-09-01T12:53:49;2.58;;;1.40;;
28838;SDS011;15971;50.772;6.100;2022-09-01T12:56:28;3.70;;;1.27;;
28838;SDS011;15971;50.772;6.100;2022-09-01T12:59:29;6.05;;;1.40;;
28838;SDS011;15971;50.772;6.100;2022-09-01T13:01:49;2.28;;;1.45;;
28838;SDS011;15971;50.772;6.100;2022-09-01T13:04:22;1.77;;;1.20;;
28838;SDS011;15971;50.772;6.100;2022-09-01T13:06:53;1.40;;;1.20;;
28838;SDS011;15971;50.772;6.100;2022-09-01T13:09:20;4.90;;;1.60;;
28838;SDS011;15971;50.772;6.100;2022-09-01T13:11:46;4.22;;;1.67;;
28838;SDS011;15971;50.772;6.100;2022-09-01T13:14:13;2.53;;;1.40;;
28838;SDS011;15971;50.772;6.100;2022-09-01T13:16:40;3.10;;;1.20;;
28838;SDS011;15971;50.772;6.100;2022-09-01T13:19:06;1.95;;;1.27;;
28838;SDS011;15971;50.772;6.100;2022-09-01T13:21:32;2.38;;;1.25;;
28838;SDS011;15971;50.772;6.100;2022-09-01T13:23:59;3.90;;;1.50;;
28838;SDS011;15971;50.772;6.100;2022-09-01T13:26:25;4.15;;;2.03;;
28838;SDS011;15971;50.772;6.100;2022-09-01T13:28:52;3.67;;;1.75;;
28838;SDS011;15971;50.772;6.100;2022-09-01T13:31:17;4.30;;;1.45;;
28838;SDS011;15971;50.772;6.100;2022-09-01T13:33:43;6.03;;;1.92;;
28838;SDS011;15971;50.772;6.100;2022-09-01T13:36:09;5.63;;;2.10;;
28838;SDS011;15971;50.772;6.100;2022-09-01T13:38:34;5.85;;;2.10;;
28838;SDS011;15971;50.772;6.100;2022-09-01T13:41:00;4.80;;;2.03;;
28838;SDS011;15971;50.772;6.100;2022-09-01T13:43:26;5.38;;;2.10;;
28838;SDS011;15971;50.772;6.100;2022-09-01T13:45:52;1.88;;;1.20;;
28838;SDS011;15971;50.772;6.100;2022-09-01T13:48:18;6.43;;;1.50;;
28838;SDS011;15971;50.772;6.100;2022-09-01T13:50:45;5.15;;;1.73;;
28838;SDS011;15971;50.772;6.100;2022-09-01T13:53:16;3.78;;;1.58;;
28838;SDS011;15971;50.772;6.100;2022-09-01T13:55:42;3.30;;;2.60;;
28838;SDS011;15971;50.772;6.100;2022-09-01T13:58:08;4.95;;;1.65;;
28838;SDS011;15971;50.772;6.100;2022-09-01T14:00:35;6.20;;;1.85;;
28838;SDS011;15971;50.772;6.100;2022-09-01T14:03:04;7.80;;;1.73;;
28838;SDS011;15971;50.772;6.100;2022-09-01T14:05:32;4.30;;;1.77;;
28838;SDS011;15971;50.772;6.100;2022-09-01T14:08:00;3.28;;;2.13;;
28838;SDS011;15971;50.772;6.100;2022-09-01T14:10:27;4.18;;;2.05;;
28838;SDS011;15971;50.772;6.100;2022-09-01T14:12:55;7.05;;;2.10;;
28838;SDS011;15971;50.772;6.100;2022-09-01T14:15:21;2.35;;;1.60;;
28838;SDS011;15971;50.772;6.100;2022-09-01T14:17:48;1.92;;;1.52;;
28838;SDS011;15971;50.772;6.100;2022-09-01T14:20:16;6.15;;;2.03;;
28838;SDS011;15971;50.772;6.100;2022-09-01T14:22:47;8.55;;;1.98;;
28838;SDS011;15971;50.772;6.100;2022-09-01T14:25:13;5.75;;;2.03;;
28838;SDS011;15971;50.772;6.100;2022-09-01T14:27:40;6.20;;;1.85;;
28838;SDS011;15971;50.772;6.100;2022-09-01T14:30:07;3.03;;;1.63;;
28838;SDS011;15971;50.772;6.100;2022-09-01T14:32:39;7.20;;;1.80;;
28838;SDS011;15971;50.772;6.100;2022-09-01T14:35:04;3.35;;;1.80;;
28838;SDS011;15971;50.772;6.100;2022-09-01T14:37:32;4.07;;;1.60;;
28838;SDS011;15971;50.772;6.100;2022-09-01T14:39:58;5.43;;;1.67;;
28838;SDS011;15971;50.772;6.100;2022-09-01T14:42:24;4.05;;;1.73;;
28838;SDS011;15971;50.772;6.100;2022-09-01T14:44:52;4.47;;;2.10;;
28838;SDS011;15971;50.772;6.100;2022-09-01T14:47:18;5.72;;;1.55;;
28838;SDS011;15971;50.772;6.100;2022-09-01T14:49:45;5.82;;;2.05;;
28838;SDS011;15971;50.772;6.100;2022-09-01T14:52:11;4.15;;;1.50;;
28838;SDS011;15971;50.772;6.100;2022-09-01T14:54:39;3.28;;;1.50;;
28838;SDS011;15971;50.772;6.100;2022-09-01T14:57:06;2.78;;;1.83;;
28838;SDS011;15971;50.772;6.100;2022-09-01T14:59:33;3.15;;;1.60;;
28838;SDS011;15971;50.772;6.100;2022-09-01T15:01:59;2.20;;;1.80;;
28838;SDS011;15971;50.772;6.100;2022-09-01T15:04:25;2.33;;;1.70;;
28838;SDS011;15971;50.772;6.100;2022-09-01T15:06:51;2.60;;;1.48;;
28838;SDS011;15971;50.772;6.100;2022-09-01T15:09:18;4.25;;;1.77;;
28838;SDS011;15971;50.772;6.100;2022-09-01T15:11:44;3.70;;;1.60;;
28838;SDS011;15971;50.772;6.100;2022-09-01T15:14:10;9.82;;;1.90;;
28838;SDS011;15971;50.772;6.100;2022-09-01T15:16:36;3.42;;;1.50;;
28838;SDS011;15971;50.772;6.100;2022-09-01T15:19:09;4.63;;;1.90;;
28838;SDS011;15971;50.772;6.100;2022-09-01T15:21:37;2.35;;;1.60;;
28838;SDS011;15971;50.772;6.100;2022-09-01T15:24:05;3.20;;;1.60;;
28838;SDS011;15971;50.772;6.100;2022-09-01T15:26:32;3.83;;;2.05;;
28838;SDS011;15971;50.772;6.100;2022-09-01T15:28:59;7.63;;;1.70;;
28838;SDS011;15971;50.772;6.100;2022-09-01T15:31:26;3.10;;;2.10;;
28838;SDS011;15971;50.772;6.100;2022-09-01T15:33:57;2.72;;;1.95;;
28838;SDS011;15971;50.772;6.100;2022-09-01T15:36:25;3.20;;;1.63;;
28838;SDS011;15971;50.772;6.100;2022-09-01T15:38:53;2.47;;;1.70;;
28838;SDS011;15971;50.772;6.100;2022-09-01T15:41:22;4.72;;;1.88;;
28838;SDS011;15971;50.772;6.100;2022-09-01T15:43:52;4.28;;;1.58;;
28838;SDS011;15971;50.772;6.100;2022-09-01T15:46:19;2.35;;;1.27;;
28838;SDS011;15971;50.772;6.100;2022-09-01T15:48:45;2.67;;;1.80;;
28838;SDS011;15971;50.772;6.100;2022-09-01T15:53:51;2.03;;;1.50;;
28838;SDS011;15971;50.772;6.100;2022-09-01T15:56:19;11.77;;;2.00;;
28838;SDS011;15971;50.772;6.100;2022-09-01T15:58:46;3.17;;;2.22;;
28838;SDS011;15971;50.772;6.100;2022-09-01T16:01:13;4.70;;;1.98;;
28838;SDS011;15971;50.772;6.100;2022-09-01T16:03:39;2.42;;;1.70;;
28838;SDS011;15971;50.772;6.100;2022-09-01T16:06:05;4.72;;;1.95;;
28838;SDS011;15971;50.772;6.100;2022-09-01T16:08:32;3.20;;;2.17;;
28838;SDS011;15971;50.772;6.100;2022-09-01T16:10:58;4.60;;;1.75;;
28838;SDS011;15971;50.772;6.100;2022-09-01T16:13:24;2.38;;;1.63;;
28838;SDS011;15971;50.772;6.100;2022-09-01T16:15:55;4.25;;;1.95;;
28838;SDS011;15971;50.772;6.100;2022-09-01T16:18:38;3.75;;;2.28;;